createdAt,value
2019-01-09T00:02:06.560Z,98965.05
2019-01-09T00:07:10.388Z,98965.33
2019-01-09T00:12:14.241Z,98970.52
2019-01-09T00:17:18.138Z,98967.15
2019-01-09T00:22:22.017Z,98961.06
2019-01-09T00:27:25.835Z,98969.59
2019-01-09T00:32:29.625Z,98969.59
2019-01-09T00:37:33.437Z,98974.89
2019-01-09T00:42:37.358Z,98974.89
2019-01-09T00:47:41.172Z,98971.87
2019-01-09T00:52:45.011Z,98969.96
2019-01-09T00:57:48.858Z,98969.96
2019-01-09T01:03:27.018Z,98984.16
2019-01-09T01:09:09.236Z,98994.50
2019-01-09T01:15:10.605Z,98994.50
2019-01-09T01:20:35.876Z,98990.80
2019-01-09T01:26:03.792Z,99007.84
2019-01-09T01:31:40.376Z,99006.28
2019-01-09T01:37:19.362Z,99009.81
2019-01-09T01:43:22.431Z,99009.02
2019-01-09T01:48:47.349Z,99012.89
2019-01-09T01:54:31.498Z,99010.73
2019-01-09T01:59:47.033Z,99010.73
2019-01-09T02:05:25.377Z,99012.28
2019-01-09T02:11:24.823Z,99009.26
2019-01-09T02:17:11.913Z,98998.94
2019-01-09T02:22:56.146Z,99029.09
2019-01-09T02:28:37.098Z,99034.63
2019-01-09T02:33:41.013Z,99024.38
2019-01-09T02:38:44.804Z,99032.72
2019-01-09T02:43:48.597Z,99032.72
2019-01-09T02:48:52.397Z,99021.88
2019-01-09T02:53:56.190Z,99034.06
2019-01-09T02:58:59.998Z,99035.33
2019-01-09T03:04:03.860Z,99041.51
2019-01-09T03:09:07.644Z,99038.91
2019-01-09T03:14:11.422Z,99044.67
2019-01-09T03:19:15.189Z,99043.51
2019-01-09T03:24:18.973Z,99045.67
2019-01-09T03:29:22.753Z,99044.96
2019-01-09T03:34:26.537Z,99045.42
2019-01-09T03:39:30.321Z,99045.42
2019-01-09T03:44:34.207Z,99044.46
2019-01-09T03:49:37.959Z,99044.46
2019-01-09T03:54:41.723Z,99042.03
2019-01-09T03:59:45.497Z,99047.34
2019-01-09T04:04:49.290Z,99048.33
2019-01-09T04:09:53.062Z,99051.16
2019-01-09T04:14:56.848Z,99052.91
2019-01-09T04:20:00.629Z,99052.91
2019-01-09T04:25:04.556Z,99053.61
2019-01-09T04:30:08.527Z,99066.69
2019-01-09T04:35:12.332Z,99073.55
2019-01-09T04:40:16.119Z,99073.00
2019-01-09T04:45:19.897Z,99070.64
2019-01-09T04:50:23.668Z,99074.91
2019-01-09T04:55:27.455Z,99074.91
2019-01-09T05:00:31.275Z,99078.00
2019-01-09T05:05:35.065Z,99089.18
2019-01-09T05:10:38.849Z,99089.42
2019-01-09T05:15:42.640Z,99098.41
2019-01-09T05:20:46.411Z,99098.41
2019-01-09T05:25:50.176Z,99117.89
2019-01-09T05:30:53.950Z,99109.90
2019-01-09T05:35:57.724Z,99109.90
2019-01-09T05:41:01.502Z,99123.87
2019-01-09T05:46:05.275Z,99134.42
2019-01-09T05:51:09.046Z,99137.14
2019-01-09T05:56:12.824Z,99136.25
2019-01-09T06:01:25.636Z,99145.59
2019-01-09T06:06:29.405Z,99147.92
2019-01-09T06:11:33.190Z,99155.94
2019-01-09T06:16:36.960Z,99154.19
2019-01-09T06:21:40.741Z,99157.56
2019-01-09T06:26:44.532Z,99155.08
2019-01-09T06:31:48.311Z,99163.02
2019-01-09T06:36:52.114Z,99168.83
2019-01-09T06:41:55.933Z,99176.61
2019-01-09T06:46:59.708Z,99185.55
2019-01-09T06:52:03.483Z,99185.55
2019-01-09T06:57:07.262Z,99194.37
2019-01-09T07:02:11.046Z,99194.37
2019-01-09T07:07:14.817Z,99206.17
2019-01-09T07:12:18.582Z,99206.17
2019-01-09T07:17:22.358Z,99220.39
2019-01-09T07:22:26.132Z,99222.75
2019-01-09T07:27:29.905Z,99222.75
2019-01-09T07:32:33.686Z,99235.53
2019-01-09T07:37:44.879Z,99238.34
2019-01-09T07:42:42.971Z,99242.34
2019-01-09T07:47:46.751Z,99242.34
2019-01-09T07:52:50.537Z,99247.57
2019-01-09T07:57:54.317Z,99273.41
2019-01-09T08:02:58.084Z,99302.30
2019-01-09T08:08:01.866Z,99286.34
2019-01-09T08:13:05.641Z,99286.34
2019-01-09T08:18:09.412Z,99277.72
2019-01-09T08:23:13.188Z,99277.72
2019-01-09T08:28:16.965Z,99292.55
2019-01-09T08:33:20.819Z,99294.81
2019-01-09T08:38:24.625Z,99296.02
2019-01-09T08:43:28.409Z,99296.02
2019-01-09T08:48:32.189Z,99309.30
2019-01-09T08:53:35.966Z,99310.20
2019-01-09T08:58:39.745Z,99316.20
2019-01-09T09:03:43.518Z,99325.01
2019-01-09T09:08:47.303Z,99325.01
2019-01-09T09:13:51.093Z,99337.37
2019-01-09T09:18:54.881Z,99335.67
2019-01-09T09:23:58.653Z,99335.67
2019-01-09T09:29:02.426Z,99341.17
2019-01-09T09:34:06.223Z,99352.55
2019-01-09T09:39:10.566Z,99357.16
2019-01-09T09:44:14.349Z,99357.16
2019-01-09T09:49:18.138Z,99365.76
2019-01-09T09:54:23.405Z,99364.08
2019-01-09T09:59:27.394Z,99378.86
2019-01-09T10:04:31.181Z,99377.52
2019-01-09T10:09:34.993Z,99386.92
2019-01-09T10:14:38.787Z,99380.11
2019-01-09T10:19:42.580Z,99380.11
2019-01-09T10:24:46.382Z,99391.48
2019-01-09T10:29:50.182Z,99391.48
2019-01-09T10:34:53.993Z,99387.66
2019-01-09T10:39:57.782Z,99388.81
2019-01-09T10:45:01.621Z,99389.36
2019-01-09T10:50:06.196Z,99389.36
2019-01-09T10:55:10.516Z,99391.98
2019-01-09T11:00:20.411Z,99391.98
2019-01-09T11:05:24.341Z,99394.86
2019-01-09T11:10:28.117Z,99394.86
2019-01-09T11:15:31.904Z,99391.80
2019-01-09T11:20:35.686Z,99399.28
2019-01-09T11:25:39.476Z,99400.78
2019-01-09T11:30:43.258Z,99402.91
2019-01-09T11:35:47.052Z,99402.91
2019-01-09T11:40:50.828Z,99408.42
2019-01-09T11:45:54.617Z,99405.23
2019-01-09T11:50:58.420Z,99413.20
2019-01-09T11:56:02.197Z,99415.54
2019-01-09T12:01:05.996Z,99414.33
2019-01-09T12:06:09.778Z,99414.33
2019-01-09T12:11:13.551Z,99431.28
2019-01-09T12:16:17.334Z,99426.97
2019-01-09T12:21:21.123Z,99436.30
2019-01-09T12:26:24.921Z,99442.80
2019-01-09T12:31:28.688Z,99448.02
2019-01-09T12:36:32.462Z,99448.02
2019-01-09T12:41:36.249Z,99467.78
2019-01-09T12:46:40.021Z,99476.95
2019-01-09T12:51:43.809Z,99472.19
2019-01-09T12:56:47.589Z,99482.48
2019-01-09T13:01:51.461Z,99493.71
2019-01-09T13:06:55.224Z,99493.71
2019-01-09T13:11:59.066Z,99496.73
2019-01-09T13:17:11.511Z,99532.48
2019-01-09T13:22:08.364Z,99553.15
2019-01-09T13:27:12.148Z,99560.02
2019-01-09T13:32:16.149Z,99547.41
2019-01-09T13:37:19.940Z,99541.42
2019-01-09T13:42:23.723Z,99546.68
2019-01-09T13:47:27.500Z,99546.68
2019-01-09T13:52:31.288Z,99555.31
2019-01-09T13:57:35.069Z,99565.45
2019-01-09T14:02:38.846Z,99568.13
2019-01-09T14:07:42.667Z,99575.43
2019-01-09T14:12:46.436Z,99586.30
2019-01-09T14:17:50.335Z,99573.45
2019-01-09T14:22:54.161Z,99594.31
2019-01-09T14:27:57.953Z,99611.88
2019-01-09T14:33:01.763Z,99610.99
2019-01-09T14:38:05.550Z,99621.97
2019-01-09T14:43:09.348Z,99621.97
2019-01-09T14:48:13.170Z,99631.94
2019-01-09T14:53:16.976Z,99644.72
2019-01-09T14:58:20.895Z,99648.42
2019-01-09T15:03:24.832Z,99655.91
2019-01-09T15:08:28.636Z,99657.06
2019-01-09T15:13:32.444Z,99657.06
2019-01-09T15:18:36.283Z,99665.28
2019-01-09T15:23:40.140Z,99684.73
2019-01-09T15:28:43.954Z,99686.07
2019-01-09T15:33:47.785Z,99688.31
2019-01-09T15:38:51.615Z,99693.19
2019-01-09T15:43:55.434Z,99705.45
2019-01-09T15:48:59.252Z,99705.45
2019-01-09T15:54:04.742Z,99708.25
2019-01-09T15:59:08.914Z,99712.52
2019-01-09T16:04:12.977Z,99712.52
2019-01-09T16:09:16.802Z,99726.98
2019-01-09T16:14:20.608Z,99726.98
2019-01-09T16:19:24.529Z,99742.43
2019-01-09T16:24:28.491Z,99750.70
2019-01-09T16:29:33.891Z,99758.63
2019-01-09T16:34:37.881Z,99758.63
2019-01-09T16:39:41.711Z,99761.66
2019-01-09T16:44:45.515Z,99761.66
2019-01-09T16:49:49.322Z,99765.07
2019-01-09T16:54:53.246Z,99766.84
2019-01-09T16:59:57.181Z,99772.98
2019-01-09T17:05:01.057Z,99770.13
2019-01-09T17:10:06.522Z,99770.13
2019-01-09T17:15:11.711Z,99781.52
2019-01-09T17:20:17.684Z,99802.64
2019-01-09T17:25:23.772Z,99802.73
2019-01-09T17:30:28.404Z,99818.61
2019-01-09T17:35:32.238Z,99823.45
2019-01-09T17:40:40.874Z,99831.55
2019-01-09T17:45:41.735Z,99831.55
2019-01-09T17:50:45.669Z,99834.05
2019-01-09T17:55:49.467Z,99841.93
2019-01-09T18:00:53.468Z,99851.58
2019-01-09T18:05:57.321Z,99857.19
2019-01-09T18:11:02.362Z,99858.29
2019-01-09T18:16:07.634Z,99871.19
2019-01-09T18:21:11.472Z,99870.74
2019-01-09T18:26:15.272Z,99875.41
2019-01-09T18:31:37.321Z,99880.58
2019-01-09T18:37:33.275Z,99888.42
2019-01-09T18:43:18.025Z,99903.38
2019-01-09T18:48:50.828Z,99903.38
2019-01-09T18:53:55.603Z,99913.03
2019-01-09T18:59:01.452Z,99919.51
2019-01-09T19:04:05.254Z,99927.42
2019-01-09T19:09:10.324Z,99936.55
2019-01-09T19:14:14.128Z,99945.92
2019-01-09T19:19:17.910Z,99952.86
2019-01-09T19:24:22.004Z,99953.90
2019-01-09T19:29:25.823Z,99953.90
2019-01-09T19:34:29.899Z,99962.42
2019-01-09T19:39:33.677Z,99978.36
2019-01-09T19:44:37.476Z,99985.45
2019-01-09T19:49:41.271Z,99985.45
2019-01-09T19:54:45.059Z,99995.52
2019-01-09T19:59:48.837Z,99995.52
2019-01-09T20:04:52.631Z,100011.03
2019-01-09T20:09:56.502Z,100027.97
2019-01-09T20:15:00.343Z,100022.83
2019-01-09T20:20:05.792Z,100033.06
2019-01-09T20:25:09.671Z,100036.61
2019-01-09T20:30:27.826Z,100048.33
2019-01-09T20:35:31.819Z,100052.84
2019-01-09T20:40:35.621Z,100052.84
2019-01-09T20:45:39.464Z,100060.41
2019-01-09T20:50:43.280Z,100067.94
2019-01-09T20:55:47.226Z,100067.94
2019-01-09T21:00:51.095Z,100081.17
2019-01-09T21:05:54.897Z,100083.36
2019-01-09T21:10:58.662Z,100083.36
2019-01-09T21:16:02.549Z,100101.23
2019-01-09T21:21:06.360Z,100101.23
2019-01-09T21:26:10.179Z,100120.68
2019-01-09T21:31:14.077Z,100122.64
2019-01-09T21:36:17.878Z,100127.26
2019-01-09T21:41:21.674Z,100127.84
2019-01-09T21:46:25.477Z,100140.29
2019-01-09T21:51:29.281Z,100144.00
2019-01-09T21:56:33.085Z,100150.59
2019-01-09T22:01:36.891Z,100159.98
2019-01-09T22:06:40.677Z,100159.98
2019-01-09T22:11:44.479Z,100167.14
2019-01-09T22:16:48.270Z,100172.95
2019-01-09T22:21:52.069Z,100177.77
2019-01-09T22:26:55.873Z,100186.31
2019-01-09T22:31:59.720Z,100193.88
2019-01-09T22:37:03.526Z,100207.86
2019-01-09T22:42:12.008Z,100207.86
2019-01-09T22:47:12.886Z,100210.90
2019-01-09T22:52:16.674Z,100215.55
2019-01-09T22:57:20.475Z,100214.12
2019-01-09T23:02:26.560Z,100215.95
2019-01-09T23:07:30.366Z,100227.67
2019-01-09T23:12:34.129Z,100223.75
2019-01-09T23:17:37.908Z,100225.45
2019-01-09T23:22:41.694Z,100225.45
2019-01-09T23:27:45.474Z,100236.11
2019-01-09T23:32:49.252Z,100242.47
2019-01-09T23:37:53.057Z,100244.45
2019-01-09T23:42:56.849Z,100244.45
2019-01-09T23:48:00.627Z,100256.21
2019-01-09T23:53:04.414Z,100256.21
2019-01-09T23:58:08.203Z,100269.89
